sensor_id;sensor_type;location;lat;lon;timestamp;P1;durP1;ratioP1;P2;durP2;ratioP2
18290;SDS011;9271;48.590;8.866;2023-06-26T00:01:45;7.43;;;6.73;;
18290;SDS011;9271;48.590;8.866;2023-06-26T00:04:11;7.30;;;6.60;;
18290;SDS011;9271;48.590;8.866;2023-06-26T00:06:39;7.50;;;6.43;;
18290;SDS011;9271;48.590;8.866;2023-06-26T00:09:06;7.20;;;6.57;;
18290;SDS011;9271;48.590;8.866;2023-06-26T00:11:33;7.70;;;6.93;;
18290;SDS011;9271;48.590;8.866;2023-06-26T00:14:01;8.17;;;7.07;;
18290;SDS011;9271;48.590;8.866;2023-06-26T00:16:28;7.77;;;6.93;;
18290;SDS011;9271;48.590;8.866;2023-06-26T00:18:56;7.77;;;7.07;;
18290;SDS011;9271;48.590;8.866;2023-06-26T00:21:23;7.37;;;6.67;;
18290;SDS011;9271;48.590;8.866;2023-06-26T00:23:50;7.47;;;6.67;;
18290;SDS011;9271;48.590;8.866;2023-06-26T00:26:17;7.43;;;6.67;;
18290;SDS011;9271;48.590;8.866;2023-06-26T00:28:43;9.00;;;6.90;;
18290;SDS011;9271;48.590;8.866;2023-06-26T00:31:11;7.93;;;7.17;;
18290;SDS011;9271;48.590;8.866;2023-06-26T00:33:38;7.43;;;6.73;;
18290;SDS011;9271;48.590;8.866;2023-06-26T00:36:05;9.37;;;7.30;;
18290;SDS011;9271;48.590;8.866;2023-06-26T00:38:31;8.30;;;7.47;;
18290;SDS011;9271;48.590;8.866;2023-06-26T00:40:58;8.07;;;7.20;;
18290;SDS011;9271;48.590;8.866;2023-06-26T00:43:24;7.50;;;6.67;;
18290;SDS011;9271;48.590;8.866;2023-06-26T00:45:51;7.33;;;6.73;;
18290;SDS011;9271;48.590;8.866;2023-06-26T00:48:19;7.83;;;7.10;;
18290;SDS011;9271;48.590;8.866;2023-06-26T00:50:46;8.13;;;7.30;;
18290;SDS011;9271;48.590;8.866;2023-06-26T00:53:12;7.13;;;6.53;;
18290;SDS011;9271;48.590;8.866;2023-06-26T00:55:39;7.37;;;6.60;;
18290;SDS011;9271;48.590;8.866;2023-06-26T00:58:06;7.50;;;6.80;;
18290;SDS011;9271;48.590;8.866;2023-06-26T01:00:32;7.93;;;7.13;;
18290;SDS011;9271;48.590;8.866;2023-06-26T01:02:59;7.40;;;6.70;;
18290;SDS011;9271;48.590;8.866;2023-06-26T01:05:27;7.37;;;6.67;;
18290;SDS011;9271;48.590;8.866;2023-06-26T01:07:55;7.53;;;6.83;;
18290;SDS011;9271;48.590;8.866;2023-06-26T01:10:24;7.63;;;6.77;;
18290;SDS011;9271;48.590;8.866;2023-06-26T01:12:52;8.10;;;7.30;;
18290;SDS011;9271;48.590;8.866;2023-06-26T01:15:19;8.40;;;6.93;;
18290;SDS011;9271;48.590;8.866;2023-06-26T01:17:46;7.90;;;7.10;;
18290;SDS011;9271;48.590;8.866;2023-06-26T01:20:13;8.83;;;6.33;;
18290;SDS011;9271;48.590;8.866;2023-06-26T01:22:45;7.27;;;6.57;;
18290;SDS011;9271;48.590;8.866;2023-06-26T01:25:21;6.67;;;6.07;;
18290;SDS011;9271;48.590;8.866;2023-06-26T01:27:56;6.93;;;6.33;;
18290;SDS011;9271;48.590;8.866;2023-06-26T01:30:24;8.83;;;6.77;;
18290;SDS011;9271;48.590;8.866;2023-06-26T01:32:52;7.07;;;6.43;;
18290;SDS011;9271;48.590;8.866;2023-06-26T01:35:18;7.87;;;7.07;;
18290;SDS011;9271;48.590;8.866;2023-06-26T01:37:45;7.97;;;7.20;;
18290;SDS011;9271;48.590;8.866;2023-06-26T01:40:12;8.50;;;7.70;;
18290;SDS011;9271;48.590;8.866;2023-06-26T01:42:39;8.17;;;7.47;;
18290;SDS011;9271;48.590;8.866;2023-06-26T01:45:09;8.10;;;7.23;;
18290;SDS011;9271;48.590;8.866;2023-06-26T01:47:40;8.03;;;7.23;;
18290;SDS011;9271;48.590;8.866;2023-06-26T01:50:11;7.63;;;6.93;;
18290;SDS011;9271;48.590;8.866;2023-06-26T01:52:43;7.77;;;7.03;;
18290;SDS011;9271;48.590;8.866;2023-06-26T01:55:17;7.47;;;6.77;;
18290;SDS011;9271;48.590;8.866;2023-06-26T01:57:49;7.13;;;6.50;;
18290;SDS011;9271;48.590;8.866;2023-06-26T02:00:21;9.60;;;7.17;;
18290;SDS011;9271;48.590;8.866;2023-06-26T02:02:51;7.90;;;7.10;;
18290;SDS011;9271;48.590;8.866;2023-06-26T02:05:18;7.70;;;7.00;;
18290;SDS011;9271;48.590;8.866;2023-06-26T02:07:44;7.70;;;7.00;;
18290;SDS011;9271;48.590;8.866;2023-06-26T02:10:11;7.97;;;7.17;;
18290;SDS011;9271;48.590;8.866;2023-06-26T02:12:38;8.57;;;7.10;;
18290;SDS011;9271;48.590;8.866;2023-06-26T02:15:05;8.13;;;7.33;;
18290;SDS011;9271;48.590;8.866;2023-06-26T02:17:34;7.80;;;7.10;;
18290;SDS011;9271;48.590;8.866;2023-06-26T02:20:01;7.87;;;7.13;;
18290;SDS011;9271;48.590;8.866;2023-06-26T02:22:28;8.33;;;7.53;;
18290;SDS011;9271;48.590;8.866;2023-06-26T02:24:55;8.70;;;7.80;;
18290;SDS011;9271;48.590;8.866;2023-06-26T02:27:21;7.93;;;7.10;;
18290;SDS011;9271;48.590;8.866;2023-06-26T02:29:48;9.67;;;7.87;;
18290;SDS011;9271;48.590;8.866;2023-06-26T02:32:15;8.00;;;7.30;;
18290;SDS011;9271;48.590;8.866;2023-06-26T02:34:43;8.27;;;7.53;;
18290;SDS011;9271;48.590;8.866;2023-06-26T02:37:09;8.20;;;7.50;;
18290;SDS011;9271;48.590;8.866;2023-06-26T02:39:36;8.23;;;7.43;;
18290;SDS011;9271;48.590;8.866;2023-06-26T02:42:03;7.80;;;7.10;;
18290;SDS011;9271;48.590;8.866;2023-06-26T02:44:30;8.23;;;7.43;;
18290;SDS011;9271;48.590;8.866;2023-06-26T02:46:56;7.67;;;6.87;;
18290;SDS011;9271;48.590;8.866;2023-06-26T02:49:23;7.57;;;6.87;;
18290;SDS011;9271;48.590;8.866;2023-06-26T02:51:51;8.07;;;7.37;;
18290;SDS011;9271;48.590;8.866;2023-06-26T02:54:17;9.00;;;7.23;;
18290;SDS011;9271;48.590;8.866;2023-06-26T02:56:44;8.53;;;7.70;;
18290;SDS011;9271;48.590;8.866;2023-06-26T02:59:11;8.40;;;7.47;;
18290;SDS011;9271;48.590;8.866;2023-06-26T03:01:37;8.00;;;7.30;;
18290;SDS011;9271;48.590;8.866;2023-06-26T03:04:04;7.90;;;7.20;;
18290;SDS011;9271;48.590;8.866;2023-06-26T03:06:30;7.20;;;6.60;;
18290;SDS011;9271;48.590;8.866;2023-06-26T03:08:58;8.27;;;7.47;;
18290;SDS011;9271;48.590;8.866;2023-06-26T03:11:25;8.70;;;7.80;;
18290;SDS011;9271;48.590;8.866;2023-06-26T03:13:51;8.67;;;7.77;;
18290;SDS011;9271;48.590;8.866;2023-06-26T03:16:18;8.70;;;7.80;;
18290;SDS011;9271;48.590;8.866;2023-06-26T03:18:45;7.50;;;6.80;;
18290;SDS011;9271;48.590;8.866;2023-06-26T03:21:11;8.17;;;7.43;;
18290;SDS011;9271;48.590;8.866;2023-06-26T03:23:38;8.83;;;7.93;;
18290;SDS011;9271;48.590;8.866;2023-06-26T03:26:06;7.63;;;6.93;;
18290;SDS011;9271;48.590;8.866;2023-06-26T03:28:32;8.47;;;7.40;;
18290;SDS011;9271;48.590;8.866;2023-06-26T03:30:59;7.57;;;6.87;;
18290;SDS011;9271;48.590;8.866;2023-06-26T03:33:26;8.43;;;7.30;;
18290;SDS011;9271;48.590;8.866;2023-06-26T03:35:52;8.20;;;7.43;;
18290;SDS011;9271;48.590;8.866;2023-06-26T03:38:19;8.33;;;7.23;;
18290;SDS011;9271;48.590;8.866;2023-06-26T03:40:46;9.60;;;6.87;;
18290;SDS011;9271;48.590;8.866;2023-06-26T03:43:14;8.17;;;7.37;;
18290;SDS011;9271;48.590;8.866;2023-06-26T03:45:40;8.57;;;7.70;;
18290;SDS011;9271;48.590;8.866;2023-06-26T03:48:07;8.50;;;7.70;;
18290;SDS011;9271;48.590;8.866;2023-06-26T03:50:33;8.40;;;7.60;;
18290;SDS011;9271;48.590;8.866;2023-06-26T03:53:00;8.40;;;7.50;;
18290;SDS011;9271;48.590;8.866;2023-06-26T03:55:27;10.47;;;7.40;;
18290;SDS011;9271;48.590;8.866;2023-06-26T03:57:53;9.33;;;7.70;;
18290;SDS011;9271;48.590;8.866;2023-06-26T04:00:21;9.50;;;8.00;;
18290;SDS011;9271;48.590;8.866;2023-06-26T04:02:48;8.57;;;7.77;;
18290;SDS011;9271;48.590;8.866;2023-06-26T04:05:16;8.37;;;7.43;;
18290;SDS011;9271;48.590;8.866;2023-06-26T04:07:43;9.03;;;6.93;;
18290;SDS011;9271;48.590;8.866;2023-06-26T04:10:09;7.30;;;6.70;;
18290;SDS011;9271;48.590;8.866;2023-06-26T04:12:36;8.53;;;7.70;;
18290;SDS011;9271;48.590;8.866;2023-06-26T04:15:03;8.37;;;7.57;;
18290;SDS011;9271;48.590;8.866;2023-06-26T04:17:32;8.23;;;7.43;;
18290;SDS011;9271;48.590;8.866;2023-06-26T04:19:58;7.80;;;7.00;;
18290;SDS011;9271;48.590;8.866;2023-06-26T04:22:25;8.33;;;7.53;;
18290;SDS011;9271;48.590;8.866;2023-06-26T04:24:51;10.03;;;8.10;;
18290;SDS011;9271;48.590;8.866;2023-06-26T04:27:18;10.93;;;7.50;;
18290;SDS011;9271;48.590;8.866;2023-06-26T04:29:45;8.83;;;7.93;;
18290;SDS011;9271;48.590;8.866;2023-06-26T04:32:11;7.60;;;6.90;;
18290;SDS011;9271;48.590;8.866;2023-06-26T04:34:39;8.13;;;7.33;;
18290;SDS011;9271;48.590;8.866;2023-06-26T04:37:08;8.67;;;7.87;;
18290;SDS011;9271;48.590;8.866;2023-06-26T04:39:35;8.83;;;7.93;;
18290;SDS011;9271;48.590;8.866;2023-06-26T04:42:03;8.73;;;7.30;;
18290;SDS011;9271;48.590;8.866;2023-06-26T04:44:30;7.60;;;6.90;;
18290;SDS011;9271;48.590;8.866;2023-06-26T04:46:57;8.37;;;7.13;;
18290;SDS011;9271;48.590;8.866;2023-06-26T04:49:23;8.90;;;8.00;;
18290;SDS011;9271;48.590;8.866;2023-06-26T04:51:52;10.37;;;7.93;;
18290;SDS011;9271;48.590;8.866;2023-06-26T04:54:18;8.97;;;7.70;;
18290;SDS011;9271;48.590;8.866;2023-06-26T04:56:45;9.13;;;7.70;;
18290;SDS011;9271;48.590;8.866;2023-06-26T04:59:13;13.73;;;7.73;;
18290;SDS011;9271;48.590;8.866;2023-06-26T05:01:40;9.07;;;7.93;;
18290;SDS011;9271;48.590;8.866;2023-06-26T05:04:07;9.23;;;8.33;;
18290;SDS011;9271;48.590;8.866;2023-06-26T05:06:33;8.77;;;7.87;;
18290;SDS011;9271;48.590;8.866;2023-06-26T05:09:01;8.97;;;8.03;;
18290;SDS011;9271;48.590;8.866;2023-06-26T05:11:28;10.67;;;8.53;;
18290;SDS011;9271;48.590;8.866;2023-06-26T05:13:54;8.87;;;7.90;;
18290;SDS011;9271;48.590;8.866;2023-06-26T05:16:21;11.53;;;8.20;;
18290;SDS011;9271;48.590;8.866;2023-06-26T05:18:48;11.67;;;7.93;;
18290;SDS011;9271;48.590;8.866;2023-06-26T05:21:14;8.13;;;7.33;;
18290;SDS011;9271;48.590;8.866;2023-06-26T05:23:42;10.07;;;7.50;;
18290;SDS011;9271;48.590;8.866;2023-06-26T05:26:11;10.00;;;7.70;;
18290;SDS011;9271;48.590;8.866;2023-06-26T05:28:39;9.13;;;7.70;;
18290;SDS011;9271;48.590;8.866;2023-06-26T05:31:06;8.27;;;7.40;;
18290;SDS011;9271;48.590;8.866;2023-06-26T05:33:34;9.13;;;7.37;;
18290;SDS011;9271;48.590;8.866;2023-06-26T05:36:01;8.77;;;7.50;;
18290;SDS011;9271;48.590;8.866;2023-06-26T05:38:30;9.93;;;7.57;;
18290;SDS011;9271;48.590;8.866;2023-06-26T05:40:57;10.80;;;7.97;;
18290;SDS011;9271;48.590;8.866;2023-06-26T05:43:25;10.13;;;7.47;;
18290;SDS011;9271;48.590;8.866;2023-06-26T05:45:52;11.97;;;8.00;;
18290;SDS011;9271;48.590;8.866;2023-06-26T05:48:19;9.00;;;7.40;;
18290;SDS011;9271;48.590;8.866;2023-06-26T05:50:45;8.80;;;7.13;;
18290;SDS011;9271;48.590;8.866;2023-06-26T05:53:13;9.73;;;7.73;;
18290;SDS011;9271;48.590;8.866;2023-06-26T05:55:40;7.97;;;7.17;;
18290;SDS011;9271;48.590;8.866;2023-06-26T05:58:07;12.13;;;8.07;;
18290;SDS011;9271;48.590;8.866;2023-06-26T06:00:38;10.60;;;7.37;;
18290;SDS011;9271;48.590;8.866;2023-06-26T06:03:05;9.87;;;7.70;;
18290;SDS011;9271;48.590;8.866;2023-06-26T06:05:32;9.57;;;7.40;;
18290;SDS011;9271;48.590;8.866;2023-06-26T06:07:58;8.40;;;7.33;;
18290;SDS011;9271;48.590;8.866;2023-06-26T06:10:25;7.60;;;6.90;;
18290;SDS011;9271;48.590;8.866;2023-06-26T06:12:52;8.30;;;7.20;;
18290;SDS011;9271;48.590;8.866;2023-06-26T06:15:19;7.70;;;7.10;;
18290;SDS011;9271;48.590;8.866;2023-06-26T06:17:47;9.93;;;8.27;;
18290;SDS011;9271;48.590;8.866;2023-06-26T06:20:14;9.50;;;7.23;;
18290;SDS011;9271;48.590;8.866;2023-06-26T06:22:40;8.13;;;7.33;;
18290;SDS011;9271;48.590;8.866;2023-06-26T06:25:07;10.30;;;7.67;;
18290;SDS011;9271;48.590;8.866;2023-06-26T06:27:34;7.83;;;6.97;;
18290;SDS011;9271;48.590;8.866;2023-06-26T06:30:01;9.37;;;6.93;;
18290;SDS011;9271;48.590;8.866;2023-06-26T06:32:28;8.07;;;6.77;;
18290;SDS011;9271;48.590;8.866;2023-06-26T06:34:56;7.70;;;6.90;;
18290;SDS011;9271;48.590;8.866;2023-06-26T06:37:23;9.00;;;7.40;;
18290;SDS011;9271;48.590;8.866;2023-06-26T06:39:49;9.17;;;7.03;;
18290;SDS011;9271;48.590;8.866;2023-06-26T06:42:16;8.83;;;6.97;;
18290;SDS011;9271;48.590;8.866;2023-06-26T06:44:43;7.40;;;6.80;;
18290;SDS011;9271;48.590;8.866;2023-06-26T06:47:09;8.13;;;6.80;;
18290;SDS011;9271;48.590;8.866;2023-06-26T06:49:36;8.07;;;6.50;;
18290;SDS011;9271;48.590;8.866;2023-06-26T06:52:05;9.60;;;6.70;;
18290;SDS011;9271;48.590;8.866;2023-06-26T06:54:31;8.00;;;7.07;;
18290;SDS011;9271;48.590;8.866;2023-06-26T06:57:16;7.93;;;6.60;;
18290;SDS011;9271;48.590;8.866;2023-06-26T06:59:43;7.47;;;6.73;;
18290;SDS011;9271;48.590;8.866;2023-06-26T07:02:09;7.63;;;6.80;;
18290;SDS011;9271;48.590;8.866;2023-06-26T07:04:36;7.03;;;6.33;;
18290;SDS011;9271;48.590;8.866;2023-06-26T07:07:02;8.10;;;6.73;;
18290;SDS011;9271;48.590;8.866;2023-06-26T07:09:31;7.13;;;6.37;;
18290;SDS011;9271;48.590;8.866;2023-06-26T07:11:57;7.00;;;6.30;;
18290;SDS011;9271;48.590;8.866;2023-06-26T07:14:25;7.03;;;6.43;;
18290;SDS011;9271;48.590;8.866;2023-06-26T07:16:51;8.40;;;6.47;;
18290;SDS011;9271;48.590;8.866;2023-06-26T07:19:18;7.40;;;6.27;;
18290;SDS011;9271;48.590;8.866;2023-06-26T07:21:45;8.40;;;6.60;;
18290;SDS011;9271;48.590;8.866;2023-06-26T07:24:13;6.97;;;6.13;;
18290;SDS011;9271;48.590;8.866;2023-06-26T07:26:40;7.67;;;6.10;;
18290;SDS011;9271;48.590;8.866;2023-06-26T07:29:06;6.57;;;6.07;;
18290;SDS011;9271;48.590;8.866;2023-06-26T07:31:33;8.27;;;6.00;;
18290;SDS011;9271;48.590;8.866;2023-06-26T07:34:00;7.23;;;5.97;;
18290;SDS011;9271;48.590;8.866;2023-06-26T07:36:27;6.27;;;5.77;;
18290;SDS011;9271;48.590;8.866;2023-06-26T07:38:53;6.57;;;5.97;;
18290;SDS011;9271;48.590;8.866;2023-06-26T07:41:21;6.23;;;5.70;;
18290;SDS011;9271;48.590;8.866;2023-06-26T07:43:48;7.23;;;5.80;;
18290;SDS011;9271;48.590;8.866;2023-06-26T07:46:14;7.38;;;5.50;;
18290;SDS011;9271;48.590;8.866;2023-06-26T07:48:41;6.20;;;5.63;;
18290;SDS011;9271;48.590;8.866;2023-06-26T07:51:08;5.70;;;5.20;;
18290;SDS011;9271;48.590;8.866;2023-06-26T07:53:34;5.80;;;5.30;;
18290;SDS011;9271;48.590;8.866;2023-06-26T07:56:01;5.85;;;5.35;;
18290;SDS011;9271;48.590;8.866;2023-06-26T07:58:29;5.13;;;4.47;;
18290;SDS011;9271;48.590;8.866;2023-06-26T08:00:55;5.10;;;4.53;;
18290;SDS011;9271;48.590;8.866;2023-06-26T08:03:22;4.40;;;4.05;;
18290;SDS011;9271;48.590;8.866;2023-06-26T08:05:49;4.88;;;4.40;;
18290;SDS011;9271;48.590;8.866;2023-06-26T08:08:15;4.93;;;4.32;;
18290;SDS011;9271;48.590;8.866;2023-06-26T08:10:42;5.15;;;4.68;;
18290;SDS011;9271;48.590;8.866;2023-06-26T08:13:09;5.25;;;4.25;;
18290;SDS011;9271;48.590;8.866;2023-06-26T08:15:37;4.68;;;4.28;;
18290;SDS011;9271;48.590;8.866;2023-06-26T08:18:04;4.68;;;4.22;;
18290;SDS011;9271;48.590;8.866;2023-06-26T08:20:31;4.78;;;4.38;;
18290;SDS011;9271;48.590;8.866;2023-06-26T08:22:57;4.68;;;4.38;;
18290;SDS011;9271;48.590;8.866;2023-06-26T08:25:24;4.85;;;4.50;;
18290;SDS011;9271;48.590;8.866;2023-06-26T08:27:50;4.40;;;4.00;;
18290;SDS011;9271;48.590;8.866;2023-06-26T08:30:19;5.18;;;4.60;;
18290;SDS011;9271;48.590;8.866;2023-06-26T08:32:47;5.90;;;5.35;;
18290;SDS011;9271;48.590;8.866;2023-06-26T08:35:13;4.60;;;4.20;;
18290;SDS011;9271;48.590;8.866;2023-06-26T08:37:40;7.18;;;4.40;;
18290;SDS011;9271;48.590;8.866;2023-06-26T08:40:07;5.85;;;4.32;;
18290;SDS011;9271;48.590;8.866;2023-06-26T08:42:34;4.68;;;4.28;;
18290;SDS011;9271;48.590;8.866;2023-06-26T08:45:00;4.97;;;4.57;;
18290;SDS011;9271;48.590;8.866;2023-06-26T08:47:27;6.50;;;4.70;;
18290;SDS011;9271;48.590;8.866;2023-06-26T08:49:59;4.93;;;4.57;;
18290;SDS011;9271;48.590;8.866;2023-06-26T08:52:33;5.32;;;4.93;;
18290;SDS011;9271;48.590;8.866;2023-06-26T08:55:04;4.70;;;4.30;;
18290;SDS011;9271;48.590;8.866;2023-06-26T08:57:34;5.22;;;4.50;;
18290;SDS011;9271;48.590;8.866;2023-06-26T09:00:02;5.38;;;4.75;;
18290;SDS011;9271;48.590;8.866;2023-06-26T09:02:30;6.15;;;4.57;;
18290;SDS011;9271;48.590;8.866;2023-06-26T09:04:58;6.00;;;4.88;;
18290;SDS011;9271;48.590;8.866;2023-06-26T09:07:25;5.15;;;4.65;;
18290;SDS011;9271;48.590;8.866;2023-06-26T09:09:52;5.05;;;4.55;;
18290;SDS011;9271;48.590;8.866;2023-06-26T09:12:19;4.90;;;4.50;;
18290;SDS011;9271;48.590;8.866;2023-06-26T09:14:46;4.80;;;4.50;;
18290;SDS011;9271;48.590;8.866;2023-06-26T09:17:13;6.68;;;4.75;;
18290;SDS011;9271;48.590;8.866;2023-06-26T09:19:40;5.03;;;4.63;;
18290;SDS011;9271;48.590;8.866;2023-06-26T09:22:12;6.45;;;4.30;;
18290;SDS011;9271;48.590;8.866;2023-06-26T09:24:40;4.22;;;3.92;;
18290;SDS011;9271;48.590;8.866;2023-06-26T09:27:07;4.55;;;4.15;;
18290;SDS011;9271;48.590;8.866;2023-06-26T09:29:34;6.03;;;4.40;;
18290;SDS011;9271;48.590;8.866;2023-06-26T09:32:01;5.03;;;4.63;;
18290;SDS011;9271;48.590;8.866;2023-06-26T09:34:31;5.28;;;4.70;;
18290;SDS011;9271;48.590;8.866;2023-06-26T09:36:58;5.10;;;4.57;;
18290;SDS011;9271;48.590;8.866;2023-06-26T09:39:29;4.80;;;4.28;;
18290;SDS011;9271;48.590;8.866;2023-06-26T09:41:56;5.10;;;4.53;;
18290;SDS011;9271;48.590;8.866;2023-06-26T09:44:24;5.75;;;4.70;;
18290;SDS011;9271;48.590;8.866;2023-06-26T09:46:50;5.78;;;5.10;;
18290;SDS011;9271;48.590;8.866;2023-06-26T09:49:18;5.28;;;4.70;;
18290;SDS011;9271;48.590;8.866;2023-06-26T09:51:45;4.88;;;4.45;;
18290;SDS011;9271;48.590;8.866;2023-06-26T09:54:12;4.80;;;4.35;;
18290;SDS011;9271;48.590;8.866;2023-06-26T09:56:43;6.10;;;4.45;;
18290;SDS011;9271;48.590;8.866;2023-06-26T09:59:10;5.25;;;4.85;;
18290;SDS011;9271;48.590;8.866;2023-06-26T10:01:40;6.20;;;5.03;;
18290;SDS011;9271;48.590;8.866;2023-06-26T10:04:07;5.57;;;5.10;;
18290;SDS011;9271;48.590;8.866;2023-06-26T10:06:35;5.28;;;4.80;;
18290;SDS011;9271;48.590;8.866;2023-06-26T10:09:03;7.05;;;4.82;;
18290;SDS011;9271;48.590;8.866;2023-06-26T10:11:32;4.70;;;4.40;;
18290;SDS011;9271;48.590;8.866;2023-06-26T10:14:04;5.20;;;4.80;;
18290;SDS011;9271;48.590;8.866;2023-06-26T10:16:35;5.15;;;4.80;;
18290;SDS011;9271;48.590;8.866;2023-06-26T10:19:04;5.47;;;4.97;;
18290;SDS011;9271;48.590;8.866;2023-06-26T10:21:34;5.05;;;4.72;;
18290;SDS011;9271;48.590;8.866;2023-06-26T10:24:03;6.43;;;5.03;;
18290;SDS011;9271;48.590;8.866;2023-06-26T10:26:32;5.00;;;4.60;;
18290;SDS011;9271;48.590;8.866;2023-06-26T10:29:05;4.93;;;4.63;;
18290;SDS011;9271;48.590;8.866;2023-06-26T10:31:33;5.65;;;5.10;;
18290;SDS011;9271;48.590;8.866;2023-06-26T10:34:01;6.35;;;5.68;;
18290;SDS011;9271;48.590;8.866;2023-06-26T10:36:29;5.57;;;5.10;;
18290;SDS011;9271;48.590;8.866;2023-06-26T10:38:57;5.80;;;5.30;;
18290;SDS011;9271;48.590;8.866;2023-06-26T10:41:30;6.15;;;5.55;;
18290;SDS011;9271;48.590;8.866;2023-06-26T10:44:08;5.55;;;5.05;;
18290;SDS011;9271;48.590;8.866;2023-06-26T10:46:47;5.78;;;5.28;;
18290;SDS011;9271;48.590;8.866;2023-06-26T10:49:15;6.05;;;5.50;;
18290;SDS011;9271;48.590;8.866;2023-06-26T10:51:45;5.93;;;5.10;;
18290;SDS011;9271;48.590;8.866;2023-06-26T10:54:13;5.85;;;5.30;;
18290;SDS011;9271;48.590;8.866;2023-06-26T10:56:42;6.07;;;5.47;;
18290;SDS011;9271;48.590;8.866;2023-06-26T10:59:17;5.95;;;5.40;;
18290;SDS011;9271;48.590;8.866;2023-06-26T11:01:45;5.50;;;5.00;;
18290;SDS011;9271;48.590;8.866;2023-06-26T11:04:13;7.57;;;5.40;;
18290;SDS011;9271;48.590;8.866;2023-06-26T11:06:41;5.10;;;4.70;;
18290;SDS011;9271;48.590;8.866;2023-06-26T11:09:14;6.30;;;5.57;;
18290;SDS011;9271;48.590;8.866;2023-06-26T11:11:55;5.72;;;5.22;;
18290;SDS011;9271;48.590;8.866;2023-06-26T11:14:33;6.30;;;5.70;;
18290;SDS011;9271;48.590;8.866;2023-06-26T11:17:04;7.28;;;5.60;;
18290;SDS011;9271;48.590;8.866;2023-06-26T11:19:31;7.22;;;5.43;;
18290;SDS011;9271;48.590;8.866;2023-06-26T11:21:58;7.10;;;5.45;;
18290;SDS011;9271;48.590;8.866;2023-06-26T11:24:26;5.82;;;5.22;;
18290;SDS011;9271;48.590;8.866;2023-06-26T11:26:54;6.05;;;5.45;;
18290;SDS011;9271;48.590;8.866;2023-06-26T11:29:25;7.60;;;5.10;;
18290;SDS011;9271;48.590;8.866;2023-06-26T11:31:57;6.15;;;4.97;;
18290;SDS011;9271;48.590;8.866;2023-06-26T11:34:25;6.03;;;5.53;;
18290;SDS011;9271;48.590;8.866;2023-06-26T11:36:56;5.50;;;5.10;;
18290;SDS011;9271;48.590;8.866;2023-06-26T11:39:23;5.57;;;5.07;;
18290;SDS011;9271;48.590;8.866;2023-06-26T11:41:50;5.78;;;5.28;;
18290;SDS011;9271;48.590;8.866;2023-06-26T11:44:16;5.57;;;5.18;;
18290;SDS011;9271;48.590;8.866;2023-06-26T11:46:45;6.68;;;5.60;;
18290;SDS011;9271;48.590;8.866;2023-06-26T11:49:15;6.18;;;5.35;;
18290;SDS011;9271;48.590;8.866;2023-06-26T11:51:42;5.63;;;5.07;;
18290;SDS011;9271;48.590;8.866;2023-06-26T11:54:09;5.55;;;5.15;;
18290;SDS011;9271;48.590;8.866;2023-06-26T11:56:37;6.82;;;6.00;;
18290;SDS011;9271;48.590;8.866;2023-06-26T11:59:04;7.05;;;4.93;;
18290;SDS011;9271;48.590;8.866;2023-06-26T12:01:34;7.60;;;5.38;;
18290;SDS011;9271;48.590;8.866;2023-06-26T12:04:02;5.68;;;5.15;;
18290;SDS011;9271;48.590;8.866;2023-06-26T12:06:32;8.65;;;5.05;;
18290;SDS011;9271;48.590;8.866;2023-06-26T12:09:00;6.88;;;5.55;;
18290;SDS011;9271;48.590;8.866;2023-06-26T12:11:30;6.30;;;4.82;;
18290;SDS011;9271;48.590;8.866;2023-06-26T12:13:57;6.25;;;5.43;;
18290;SDS011;9271;48.590;8.866;2023-06-26T12:16:24;5.82;;;5.20;;
18290;SDS011;9271;48.590;8.866;2023-06-26T12:18:57;6.03;;;5.28;;
18290;SDS011;9271;48.590;8.866;2023-06-26T12:21:28;9.57;;;5.22;;
18290;SDS011;9271;48.590;8.866;2023-06-26T12:23:59;5.80;;;4.63;;
18290;SDS011;9271;48.590;8.866;2023-06-26T12:26:27;5.05;;;4.65;;
18290;SDS011;9271;48.590;8.866;2023-06-26T12:28:54;5.72;;;5.20;;
18290;SDS011;9271;48.590;8.866;2023-06-26T12:31:28;5.70;;;5.03;;
18290;SDS011;9271;48.590;8.866;2023-06-26T12:33:54;5.93;;;4.97;;
18290;SDS011;9271;48.590;8.866;2023-06-26T12:36:21;6.10;;;5.60;;
18290;SDS011;9271;48.590;8.866;2023-06-26T12:38:48;5.82;;;5.28;;
18290;SDS011;9271;48.590;8.866;2023-06-26T12:41:16;5.70;;;5.05;;
18290;SDS011;9271;48.590;8.866;2023-06-26T12:43:45;6.18;;;5.25;;
18290;SDS011;9271;48.590;8.866;2023-06-26T12:46:12;6.22;;;5.22;;
18290;SDS011;9271;48.590;8.866;2023-06-26T12:48:39;7.78;;;5.68;;
18290;SDS011;9271;48.590;8.866;2023-06-26T12:51:09;7.75;;;5.50;;
18290;SDS011;9271;48.590;8.866;2023-06-26T12:53:36;7.40;;;5.18;;
18290;SDS011;9271;48.590;8.866;2023-06-26T12:56:04;6.55;;;5.43;;
18290;SDS011;9271;48.590;8.866;2023-06-26T12:58:32;7.85;;;5.47;;
18290;SDS011;9271;48.590;8.866;2023-06-26T13:00:59;6.80;;;5.10;;
18290;SDS011;9271;48.590;8.866;2023-06-26T13:03:27;5.97;;;4.78;;
18290;SDS011;9271;48.590;8.866;2023-06-26T13:05:54;5.28;;;4.80;;
18290;SDS011;9271;48.590;8.866;2023-06-26T13:08:20;5.50;;;5.07;;
18290;SDS011;9271;48.590;8.866;2023-06-26T13:10:47;5.38;;;4.85;;
18290;SDS011;9271;48.590;8.866;2023-06-26T13:13:14;5.63;;;5.13;;
18290;SDS011;9271;48.590;8.866;2023-06-26T13:15:42;5.65;;;4.97;;
18290;SDS011;9271;48.590;8.866;2023-06-26T13:18:08;5.88;;;5.18;;
18290;SDS011;9271;48.590;8.866;2023-06-26T13:20:35;5.80;;;5.30;;
18290;SDS011;9271;48.590;8.866;2023-06-26T13:23:02;5.82;;;5.22;;
18290;SDS011;9271;48.590;8.866;2023-06-26T13:25:29;6.68;;;5.38;;
18290;SDS011;9271;48.590;8.866;2023-06-26T13:27:55;8.07;;;5.57;;
18290;SDS011;9271;48.590;8.866;2023-06-26T13:30:22;10.27;;;9.18;;
18290;SDS011;9271;48.590;8.866;2023-06-26T13:32:50;8.55;;;5.57;;
18290;SDS011;9271;48.590;8.866;2023-06-26T13:35:17;6.90;;;5.00;;
18290;SDS011;9271;48.590;8.866;2023-06-26T13:37:44;6.47;;;4.75;;
18290;SDS011;9271;48.590;8.866;2023-06-26T13:40:12;6.20;;;4.80;;
18290;SDS011;9271;48.590;8.866;2023-06-26T13:42:39;5.95;;;5.30;;
18290;SDS011;9271;48.590;8.866;2023-06-26T13:45:06;6.60;;;4.70;;
18290;SDS011;9271;48.590;8.866;2023-06-26T13:47:33;5.85;;;4.80;;
18290;SDS011;9271;48.590;8.866;2023-06-26T13:50:04;9.13;;;4.85;;
18290;SDS011;9271;48.590;8.866;2023-06-26T13:52:31;5.47;;;4.30;;
18290;SDS011;9271;48.590;8.866;2023-06-26T13:54:58;4.82;;;4.28;;
18290;SDS011;9271;48.590;8.866;2023-06-26T13:57:25;7.47;;;4.70;;
18290;SDS011;9271;48.590;8.866;2023-06-26T13:59:52;4.82;;;4.30;;
18290;SDS011;9271;48.590;8.866;2023-06-26T14:02:19;5.45;;;4.95;;
18290;SDS011;9271;48.590;8.866;2023-06-26T14:04:45;5.60;;;5.10;;
18290;SDS011;9271;48.590;8.866;2023-06-26T14:07:14;5.85;;;4.78;;
18290;SDS011;9271;48.590;8.866;2023-06-26T14:09:40;8.75;;;5.00;;
18290;SDS011;9271;48.590;8.866;2023-06-26T14:12:07;5.07;;;4.65;;
18290;SDS011;9271;48.590;8.866;2023-06-26T14:14:35;5.20;;;4.78;;
18290;SDS011;9271;48.590;8.866;2023-06-26T14:17:01;5.10;;;4.68;;
18290;SDS011;9271;48.590;8.866;2023-06-26T14:19:30;5.53;;;4.75;;
18290;SDS011;9271;48.590;8.866;2023-06-26T14:21:56;4.75;;;4.35;;
18290;SDS011;9271;48.590;8.866;2023-06-26T14:24:25;7.13;;;4.55;;
18290;SDS011;9271;48.590;8.866;2023-06-26T14:26:52;6.65;;;4.70;;
18290;SDS011;9271;48.590;8.866;2023-06-26T14:29:19;5.57;;;4.40;;
18290;SDS011;9271;48.590;8.866;2023-06-26T14:31:46;5.70;;;4.20;;
18290;SDS011;9271;48.590;8.866;2023-06-26T14:34:13;4.53;;;4.05;;
18290;SDS011;9271;48.590;8.866;2023-06-26T14:36:39;5.88;;;3.88;;
18290;SDS011;9271;48.590;8.866;2023-06-26T14:39:06;5.68;;;3.80;;
18290;SDS011;9271;48.590;8.866;2023-06-26T14:41:34;3.50;;;3.30;;
18290;SDS011;9271;48.590;8.866;2023-06-26T14:44:00;4.55;;;3.60;;
18290;SDS011;9271;48.590;8.866;2023-06-26T14:46:27;3.75;;;3.40;;
18290;SDS011;9271;48.590;8.866;2023-06-26T14:48:54;4.13;;;3.80;;
18290;SDS011;9271;48.590;8.866;2023-06-26T14:51:20;4.07;;;3.67;;
18290;SDS011;9271;48.590;8.866;2023-06-26T14:53:47;6.60;;;3.60;;
18290;SDS011;9271;48.590;8.866;2023-06-26T14:56:14;4.18;;;3.70;;
18290;SDS011;9271;48.590;8.866;2023-06-26T14:58:42;6.35;;;3.33;;
18290;SDS011;9271;48.590;8.866;2023-06-26T15:01:12;7.35;;;3.78;;
18290;SDS011;9271;48.590;8.866;2023-06-26T15:03:40;4.50;;;3.33;;